createdAt,value
2022-09-09T00:01:52.784Z,77.55
2022-09-09T00:04:31.324Z,77.51
2022-09-09T00:07:06.787Z,77.28
2022-09-09T00:09:50.154Z,78.56
2022-09-09T00:12:25.952Z,78.02
2022-09-09T00:14:57.447Z,77.81
2022-09-09T00:17:42.582Z,78.03
2022-09-09T00:20:30.646Z,77.50
2022-09-09T00:23:04.365Z,77.86
2022-09-09T00:25:42.922Z,77.73
2022-09-09T00:28:25.614Z,77.27
2022-09-09T00:30:52.152Z,77.49
2022-09-09T00:33:22.128Z,77.28
2022-09-09T00:35:58.703Z,77.37
2022-09-09T00:38:42.355Z,77.67
2022-09-09T00:41:21.358Z,77.56
2022-09-09T00:43:58.527Z,77.62
2022-09-09T00:46:32.116Z,78.51
2022-09-09T00:49:10.362Z,77.58
2022-09-09T00:51:47.826Z,77.54
2022-09-09T00:54:25.730Z,77.39
2022-09-09T00:57:07.450Z,79.70
2022-09-09T00:59:37.273Z,79.53
2022-09-09T01:02:25.799Z,78.90
2022-09-09T01:04:52.292Z,78.64
2022-09-09T01:07:24.521Z,78.75
2022-09-09T01:09:58.071Z,79.63
2022-09-09T01:12:43.012Z,78.77
2022-09-09T01:15:24.318Z,78.24
2022-09-09T01:17:50.672Z,78.14
2022-09-09T01:20:21.822Z,78.52
2022-09-09T01:22:57.176Z,78.42
2022-09-09T01:26:16.633Z,78.24
2022-09-09T01:28:49.621Z,78.11
2022-09-09T01:31:27.970Z,78.20
2022-09-09T01:33:54.619Z,78.22
2022-09-09T01:36:29.034Z,78.64
2022-09-09T01:38:55.650Z,77.57
2022-09-09T01:41:22.566Z,77.62
2022-09-09T01:43:49.809Z,77.64
2022-09-09T01:46:17.580Z,77.58
2022-09-09T01:48:44.701Z,76.99
2022-09-09T01:51:11.588Z,77.39
2022-09-09T01:53:40.209Z,77.55
2022-09-09T01:56:09.603Z,77.27
2022-09-09T01:58:47.977Z,76.89
2022-09-09T02:01:37.394Z,76.64
2022-09-09T02:04:25.194Z,76.26
2022-09-09T02:06:56.158Z,76.16
2022-09-09T02:09:25.759Z,76.07
2022-09-09T02:12:16.740Z,76.74
2022-09-09T02:14:50.092Z,77.56
2022-09-09T02:17:23.822Z,77.15
2022-09-09T02:19:59.163Z,76.78
2022-09-09T02:22:28.751Z,76.10
2022-09-09T02:24:59.379Z,76.33
2022-09-09T02:27:26.373Z,76.86
2022-09-09T02:29:55.969Z,76.56
2022-09-09T02:32:25.377Z,76.12
2022-09-09T02:34:57.882Z,76.58
2022-09-09T02:37:30.582Z,76.18
2022-09-09T02:39:57.147Z,76.29
2022-09-09T02:42:24.856Z,76.81
2022-09-09T02:44:51.290Z,76.49
2022-09-09T02:47:26.123Z,76.45
2022-09-09T02:50:07.613Z,75.95
2022-09-09T02:52:45.582Z,75.92
2022-09-09T02:55:35.355Z,75.99
2022-09-09T02:58:05.447Z,75.72
2022-09-09T03:00:32.051Z,75.76
2022-09-09T03:02:58.516Z,76.07
2022-09-09T03:05:25.343Z,76.41
2022-09-09T03:07:51.986Z,76.03
2022-09-09T03:10:18.537Z,76.52
2022-09-09T03:12:45.043Z,75.82
2022-09-09T03:15:11.926Z,75.98
2022-09-09T03:17:38.437Z,76.18
2022-09-09T03:20:05.220Z,76.05
2022-09-09T03:22:31.814Z,75.72
2022-09-09T03:24:58.232Z,75.87
2022-09-09T03:27:24.845Z,76.01
2022-09-09T03:29:52.038Z,76.08
2022-09-09T03:32:19.239Z,75.76
2022-09-09T03:34:48.348Z,75.67
2022-09-09T03:37:14.765Z,75.25
2022-09-09T03:39:41.342Z,75.97
2022-09-09T03:42:07.992Z,75.64
2022-09-09T03:44:35.778Z,75.97
2022-09-09T03:47:02.360Z,76.39
2022-09-09T03:49:31.338Z,76.34
2022-09-09T03:51:58.439Z,76.08
2022-09-09T03:54:26.349Z,75.49
2022-09-09T03:56:52.819Z,75.33
2022-09-09T03:59:19.361Z,75.42
2022-09-09T04:01:46.522Z,74.67
2022-09-09T04:04:13.338Z,74.80
2022-09-09T04:06:39.931Z,74.57
2022-09-09T04:09:06.327Z,74.39
2022-09-09T04:11:32.787Z,74.56
2022-09-09T04:13:59.392Z,74.46
2022-09-09T04:16:25.878Z,74.37
2022-09-09T04:18:53.930Z,74.00
2022-09-09T04:21:20.337Z,74.08
2022-09-09T04:23:46.851Z,74.45
2022-09-09T04:26:13.266Z,74.56
2022-09-09T04:28:39.700Z,74.74
2022-09-09T04:31:10.107Z,74.93
2022-09-09T04:33:40.100Z,74.88
2022-09-09T04:36:07.801Z,74.48
2022-09-09T04:38:34.551Z,75.05
2022-09-09T04:41:01.082Z,74.62
2022-09-09T04:43:27.937Z,74.31
2022-09-09T04:45:54.582Z,74.24
2022-09-09T04:48:22.086Z,74.57
2022-09-09T04:51:02.315Z,74.67
2022-09-09T04:53:29.112Z,74.12
2022-09-09T04:56:12.901Z,74.03
2022-09-09T04:58:40.647Z,73.97
2022-09-09T05:01:09.099Z,73.45
2022-09-09T05:03:35.935Z,73.03
2022-09-09T05:06:07.391Z,73.26
2022-09-09T05:08:33.907Z,72.79
2022-09-09T05:11:00.610Z,73.07
2022-09-09T05:13:28.817Z,73.02
2022-09-09T05:15:55.993Z,73.25
2022-09-09T05:18:23.263Z,73.47
2022-09-09T05:20:51.919Z,73.30
2022-09-09T05:23:18.311Z,73.17
2022-09-09T05:25:44.814Z,73.31
2022-09-09T05:28:12.569Z,72.32
2022-09-09T05:30:39.368Z,72.70
2022-09-09T05:33:07.115Z,73.80
2022-09-09T05:35:34.439Z,72.94
2022-09-09T05:38:01.548Z,71.91
2022-09-09T05:40:28.042Z,71.66
2022-09-09T05:42:54.690Z,72.11
2022-09-09T05:45:21.502Z,71.83
2022-09-09T05:47:54.403Z,72.50
2022-09-09T05:50:20.836Z,72.74
2022-09-09T05:52:47.290Z,73.81
2022-09-09T05:55:13.787Z,73.70
2022-09-09T05:57:40.360Z,73.31
2022-09-09T06:00:07.450Z,72.87
2022-09-09T06:02:34.081Z,72.82
2022-09-09T06:05:00.871Z,72.75
2022-09-09T06:07:27.349Z,73.00
2022-09-09T06:09:53.905Z,72.54
2022-09-09T06:12:21.853Z,71.82
2022-09-09T06:14:48.229Z,70.91
2022-09-09T06:17:14.651Z,70.80
2022-09-09T06:19:41.053Z,70.12
2022-09-09T06:22:07.493Z,69.74
2022-09-09T06:24:34.004Z,69.33
2022-09-09T06:27:00.820Z,68.59
2022-09-09T06:29:27.416Z,68.27
2022-09-09T06:31:53.928Z,68.13
2022-09-09T06:34:20.626Z,67.98
2022-09-09T06:36:47.152Z,68.60
2022-09-09T06:39:15.297Z,68.33
2022-09-09T06:41:43.398Z,67.81
2022-09-09T06:44:12.760Z,67.20
2022-09-09T06:46:40.599Z,67.05
2022-09-09T06:49:08.305Z,66.34
2022-09-09T06:51:36.892Z,65.54
2022-09-09T06:54:04.573Z,63.58
2022-09-09T06:56:37.151Z,61.52
2022-09-09T06:59:06.095Z,59.85
2022-09-09T07:01:34.940Z,58.20
2022-09-09T07:04:02.844Z,56.18
2022-09-09T07:06:32.282Z,56.22
2022-09-09T07:09:05.164Z,54.21
2022-09-09T07:11:35.075Z,53.68
2022-09-09T07:14:02.241Z,52.30
2022-09-09T07:16:30.318Z,51.28
2022-09-09T07:18:58.790Z,50.12
2022-09-09T07:21:30.062Z,49.20
2022-09-09T07:23:56.872Z,48.86
2022-09-09T07:26:29.515Z,49.76
2022-09-09T07:28:59.403Z,48.76
2022-09-09T07:31:29.029Z,47.71
2022-09-09T07:33:55.546Z,48.87
2022-09-09T07:36:23.088Z,47.34
2022-09-09T07:39:00.928Z,46.75
2022-09-09T07:41:39.480Z,45.13
2022-09-09T07:44:12.089Z,43.48
2022-09-09T07:46:40.785Z,41.80
2022-09-09T07:49:07.730Z,42.46
2022-09-09T07:51:36.919Z,42.61
2022-09-09T07:54:10.380Z,40.89
2022-09-09T07:56:40.114Z,40.11
2022-09-09T07:59:07.437Z,40.85
2022-09-09T08:01:40.447Z,40.28
2022-09-09T08:04:16.432Z,40.19
2022-09-09T08:06:49.204Z,41.17
2022-09-09T08:09:16.569Z,42.95
2022-09-09T08:11:44.144Z,44.50
2022-09-09T08:14:11.917Z,46.50
2022-09-09T08:16:42.174Z,48.17
2022-09-09T08:19:09.046Z,49.40
2022-09-09T08:21:39.947Z,49.45
2022-09-09T08:24:07.318Z,49.74
2022-09-09T08:26:37.123Z,50.30
2022-09-09T08:29:06.403Z,50.73
2022-09-09T08:31:35.470Z,49.91
2022-09-09T08:34:04.387Z,50.72
2022-09-09T08:36:34.341Z,50.94
2022-09-09T08:39:01.861Z,51.47
2022-09-09T08:41:47.716Z,51.87
2022-09-09T08:44:52.326Z,52.80
2022-09-09T08:48:06.282Z,52.12
2022-09-09T08:50:39.473Z,51.92
2022-09-09T08:53:17.414Z,52.47
2022-09-09T08:56:01.956Z,52.16
2022-09-09T08:58:31.568Z,52.70
2022-09-09T09:01:21.913Z,52.94
2022-09-09T09:03:51.638Z,52.31
2022-09-09T09:06:20.634Z,51.56
2022-09-09T09:09:03.600Z,52.08
2022-09-09T09:11:38.540Z,49.51
2022-09-09T09:14:24.408Z,48.46
2022-09-09T09:17:00.425Z,47.64
2022-09-09T09:19:29.475Z,47.62
2022-09-09T09:22:27.467Z,44.83
2022-09-09T09:24:56.712Z,42.78
2022-09-09T09:27:33.140Z,41.53
2022-09-09T09:30:23.900Z,40.25
2022-09-09T09:32:58.573Z,39.53
2022-09-09T09:35:25.046Z,39.13
2022-09-09T09:40:38.486Z,36.15
2022-09-09T09:43:10.304Z,36.18
2022-09-09T09:45:55.248Z,33.71
2022-09-09T09:48:28.479Z,34.58
2022-09-09T09:51:01.551Z,35.48
2022-09-09T09:53:36.999Z,34.01
2022-09-09T09:56:07.849Z,33.62
2022-09-09T09:58:55.328Z,32.21
2022-09-09T10:01:21.740Z,32.42
2022-09-09T10:03:53.589Z,34.14
2022-09-09T10:06:31.758Z,36.57
2022-09-09T10:08:58.147Z,36.38
2022-09-09T10:11:47.492Z,36.11
2022-09-09T10:14:21.257Z,35.15
2022-09-09T10:17:28.224Z,34.97
2022-09-09T10:20:25.761Z,35.76
2022-09-09T10:22:53.565Z,35.75
2022-09-09T10:25:28.350Z,36.43
2022-09-09T10:28:23.540Z,37.39
2022-09-09T10:31:32.650Z,38.98
2022-09-09T10:34:37.633Z,38.61
2022-09-09T10:37:26.940Z,37.46
2022-09-09T10:40:06.177Z,40.20
2022-09-09T10:42:33.479Z,41.19
2022-09-09T10:45:20.241Z,39.42
2022-09-09T10:48:21.760Z,40.06
2022-09-09T10:51:04.620Z,37.82
2022-09-09T10:53:44.450Z,38.03
2022-09-09T10:56:16.231Z,37.65
2022-09-09T10:59:07.377Z,37.71
2022-09-09T11:01:50.301Z,37.48
2022-09-09T11:05:04.430Z,38.16
2022-09-09T11:07:44.210Z,37.87
2022-09-09T11:10:31.637Z,38.51
2022-09-09T11:13:05.099Z,37.00
2022-09-09T11:15:40.157Z,36.84
2022-09-09T11:18:13.026Z,36.45
2022-09-09T11:20:40.102Z,37.86
2022-09-09T11:23:18.677Z,36.77
2022-09-09T11:25:52.968Z,36.37
2022-09-09T11:28:48.497Z,34.75
2022-09-09T11:32:17.600Z,34.64
2022-09-09T11:34:55.579Z,34.66
2022-09-09T11:37:33.393Z,35.66
2022-09-09T11:40:02.636Z,33.16
2022-09-09T11:42:29.230Z,32.56
2022-09-09T11:44:56.030Z,33.88
2022-09-09T11:47:30.859Z,34.99
2022-09-09T11:50:31.346Z,34.96
2022-09-09T11:53:27.350Z,32.25
2022-09-09T11:56:04.759Z,32.04
2022-09-09T11:58:38.767Z,30.39
2022-09-09T12:01:28.204Z,30.74
2022-09-09T12:04:09.766Z,33.37
2022-09-09T12:07:12.257Z,31.79
2022-09-09T12:09:46.885Z,30.94
2022-09-09T12:12:13.250Z,29.18
2022-09-09T12:15:01.096Z,30.28
2022-09-09T12:17:31.069Z,34.74
2022-09-09T12:20:11.915Z,36.64
2022-09-09T12:23:01.346Z,37.28
2022-09-09T12:25:33.798Z,36.58
2022-09-09T12:28:07.575Z,38.10
2022-09-09T12:30:45.866Z,36.28
2022-09-09T12:33:14.159Z,36.24
2022-09-09T12:35:43.867Z,36.32
2022-09-09T12:38:17.842Z,37.13
2022-09-09T12:40:56.336Z,37.42
2022-09-09T12:43:25.410Z,37.77
2022-09-09T12:45:59.860Z,37.95
2022-09-09T12:48:37.824Z,38.01
2022-09-09T12:51:07.633Z,38.14
2022-09-09T12:53:38.206Z,37.97
2022-09-09T12:56:11.081Z,39.39
2022-09-09T12:58:39.184Z,39.88
2022-09-09T13:01:07.462Z,39.34
2022-09-09T13:03:43.454Z,39.87
2022-09-09T13:06:19.718Z,40.36
2022-09-09T13:08:46.185Z,39.88
2022-09-09T13:11:17.835Z,40.16
2022-09-09T13:13:52.641Z,39.98
2022-09-09T13:16:42.027Z,40.55
2022-09-09T13:19:15.079Z,40.07
2022-09-09T13:21:41.737Z,41.26
2022-09-09T13:24:34.013Z,41.05
2022-09-09T13:27:25.471Z,40.09
2022-09-09T13:29:57.635Z,40.57
2022-09-09T13:32:27.811Z,39.88
2022-09-09T13:35:01.183Z,40.50
2022-09-09T13:37:35.667Z,40.75
2022-09-09T13:40:03.786Z,40.57
2022-09-09T13:42:36.201Z,40.66
2022-09-09T13:45:05.232Z,40.17
2022-09-09T13:47:35.440Z,39.69
2022-09-09T13:50:24.090Z,39.16
2022-09-09T13:52:54.034Z,38.67
2022-09-09T13:55:25.302Z,39.03
2022-09-09T13:58:01.580Z,39.20
2022-09-09T14:00:31.071Z,40.25
2022-09-09T14:02:57.822Z,39.26
2022-09-09T14:05:24.687Z,38.76
2022-09-09T14:07:53.161Z,39.57
2022-09-09T14:10:20.376Z,39.01
2022-09-09T14:12:47.636Z,38.05
2022-09-09T14:15:15.410Z,38.45
2022-09-09T14:17:41.868Z,38.19
2022-09-09T14:20:09.498Z,38.76
2022-09-09T14:22:37.054Z,38.06
2022-09-09T14:25:05.184Z,37.76
2022-09-09T14:27:31.606Z,37.70
2022-09-09T14:29:58.823Z,38.28
2022-09-09T14:32:25.266Z,38.14
2022-09-09T14:34:51.676Z,38.83
2022-09-09T14:37:19.223Z,39.55
2022-09-09T14:39:45.786Z,39.54
2022-09-09T14:42:12.259Z,41.72
2022-09-09T14:44:39.372Z,44.27
2022-09-09T14:47:06.530Z,44.20
2022-09-09T14:49:32.937Z,44.51
2022-09-09T14:51:59.377Z,44.70
2022-09-09T14:54:25.779Z,44.30
2022-09-09T14:56:52.214Z,43.10
2022-09-09T14:59:18.734Z,42.91
2022-09-09T15:01:45.184Z,41.96
2022-09-09T15:04:13.798Z,42.02
2022-09-09T15:06:40.938Z,41.78
2022-09-09T15:09:07.459Z,41.43
2022-09-09T15:11:38.653Z,41.72
2022-09-09T15:14:06.851Z,41.82
2022-09-09T15:16:33.941Z,40.46
2022-09-09T15:19:01.992Z,40.85
2022-09-09T15:21:31.817Z,40.17
2022-09-09T15:23:59.081Z,40.90
2022-09-09T15:26:25.888Z,40.44
2022-09-09T15:28:52.544Z,40.06
2022-09-09T15:31:26.273Z,41.00
2022-09-09T15:33:53.842Z,40.44
2022-09-09T15:36:21.409Z,40.76
2022-09-09T15:38:48.543Z,40.71
2022-09-09T15:41:16.387Z,41.05
2022-09-09T15:43:50.944Z,40.87
2022-09-09T15:46:29.614Z,41.28
2022-09-09T15:48:58.363Z,42.10
2022-09-09T15:51:43.945Z,42.58
2022-09-09T15:54:13.266Z,42.45
2022-09-09T15:56:40.421Z,42.33
2022-09-09T15:59:07.056Z,42.26
2022-09-09T16:01:34.714Z,42.25
2022-09-09T16:04:02.939Z,42.57
2022-09-09T16:06:30.702Z,42.13
2022-09-09T16:08:59.443Z,41.91
2022-09-09T16:11:32.132Z,41.87
2022-09-09T16:13:59.490Z,42.06
2022-09-09T16:16:29.212Z,41.94
2022-09-09T16:18:58.283Z,42.26
2022-09-09T16:21:33.074Z,42.39
2022-09-09T16:24:01.753Z,41.70
2022-09-09T16:26:29.542Z,41.56
2022-09-09T16:28:56.405Z,40.77
2022-09-09T16:31:24.850Z,40.47
2022-09-09T16:33:52.180Z,40.20
2022-09-09T16:36:21.525Z,40.08
2022-09-09T16:38:48.343Z,39.68
2022-09-09T16:41:16.031Z,40.20
2022-09-09T16:43:42.831Z,39.75
2022-09-09T16:46:19.216Z,40.58
2022-09-09T16:48:47.465Z,41.39
2022-09-09T16:51:18.377Z,41.33
2022-09-09T16:53:45.451Z,43.51
2022-09-09T16:56:21.312Z,42.69
2022-09-09T16:58:58.558Z,42.99
2022-09-09T17:01:32.450Z,43.98
2022-09-09T17:04:04.205Z,43.75
2022-09-09T17:06:34.151Z,43.81
2022-09-09T17:09:02.830Z,44.37
2022-09-09T17:11:30.643Z,43.86
2022-09-09T17:13:59.091Z,43.95
2022-09-09T17:16:31.240Z,44.40
2022-09-09T17:19:02.168Z,45.20
2022-09-09T17:21:29.382Z,46.46
2022-09-09T17:23:57.177Z,46.11
2022-09-09T17:26:30.294Z,45.92
2022-09-09T17:28:59.750Z,46.36
2022-09-09T17:31:27.397Z,46.62
2022-09-09T17:33:54.275Z,46.47
2022-09-09T17:36:29.743Z,47.44
2022-09-09T17:38:56.367Z,47.65
2022-09-09T17:41:34.840Z,47.25
2022-09-09T17:44:01.711Z,47.24
2022-09-09T17:46:31.279Z,46.90
2022-09-09T17:49:00.768Z,47.02
2022-09-09T17:51:30.599Z,46.41
2022-09-09T17:53:59.866Z,46.15
2022-09-09T17:56:29.479Z,45.92
2022-09-09T17:58:55.889Z,45.74
2022-09-09T18:01:24.543Z,46.82
2022-09-09T18:03:52.158Z,46.89
2022-09-09T18:06:22.075Z,45.91
2022-09-09T18:08:56.679Z,46.49
2022-09-09T18:11:25.889Z,46.19
2022-09-09T18:13:58.047Z,46.24
2022-09-09T18:16:26.262Z,46.70
2022-09-09T18:18:54.318Z,47.04
2022-09-09T18:21:20.710Z,47.03
2022-09-09T18:23:52.135Z,46.74
2022-09-09T18:26:24.534Z,47.20
2022-09-09T18:28:53.789Z,48.28
2022-09-09T18:31:25.645Z,48.12
2022-09-09T18:33:53.483Z,49.15
2022-09-09T18:36:25.728Z,49.33
2022-09-09T18:38:52.676Z,49.59
2022-09-09T18:41:42.874Z,51.84
2022-09-09T18:44:16.499Z,53.01
2022-09-09T18:46:44.602Z,53.56
2022-09-09T18:49:12.419Z,54.95
2022-09-09T18:51:41.208Z,54.42
2022-09-09T18:54:12.317Z,55.09
2022-09-09T18:56:39.311Z,56.49
2022-09-09T18:59:07.912Z,55.98
2022-09-09T19:01:35.902Z,57.08
2022-09-09T19:04:04.371Z,56.27
2022-09-09T19:06:32.821Z,55.50
2022-09-09T19:09:03.144Z,55.90
2022-09-09T19:11:30.518Z,55.37
2022-09-09T19:14:05.188Z,56.25
2022-09-09T19:16:33.921Z,55.88
2022-09-09T19:19:06.312Z,56.07
2022-09-09T19:21:38.222Z,55.73
2022-09-09T19:24:07.798Z,56.33
2022-09-09T19:26:40.740Z,55.73
2022-09-09T19:29:14.361Z,54.82
2022-09-09T19:31:48.857Z,55.42
2022-09-09T19:34:28.704Z,56.62
2022-09-09T19:36:55.406Z,55.88
2022-09-09T19:39:22.234Z,56.80
2022-09-09T19:41:49.077Z,56.09
2022-09-09T19:44:17.094Z,57.66
2022-09-09T19:46:46.563Z,56.88
2022-09-09T19:49:13.430Z,56.99
2022-09-09T19:51:40.015Z,56.51
2022-09-09T19:54:09.168Z,55.99
2022-09-09T19:56:37.809Z,55.84
2022-09-09T19:59:06.555Z,56.77
2022-09-09T20:01:40.075Z,56.52
2022-09-09T20:04:08.383Z,57.30
2022-09-09T20:06:37.654Z,56.55
2022-09-09T20:09:06.014Z,56.21
2022-09-09T20:11:32.754Z,56.86
2022-09-09T20:13:59.211Z,56.39
2022-09-09T20:16:30.507Z,56.63
2022-09-09T20:18:59.518Z,56.45
2022-09-09T20:21:32.237Z,56.79
2022-09-09T20:24:05.869Z,57.21
2022-09-09T20:26:35.011Z,56.85
2022-09-09T20:29:05.318Z,56.18
2022-09-09T20:31:39.300Z,56.73
2022-09-09T20:34:10.908Z,56.88
2022-09-09T20:36:37.684Z,56.96
2022-09-09T20:39:14.795Z,57.31
2022-09-09T20:41:42.148Z,57.63
2022-09-09T20:44:14.147Z,56.93
2022-09-09T20:46:43.203Z,56.47
2022-09-09T20:49:11.234Z,57.21
2022-09-09T20:51:39.188Z,57.46
2022-09-09T20:54:12.136Z,56.74
2022-09-09T20:56:40.779Z,57.24
2022-09-09T20:59:11.331Z,57.53
2022-09-09T21:01:39.123Z,57.88
2022-09-09T21:04:06.553Z,57.71
2022-09-09T21:06:33.066Z,57.80
2022-09-09T21:08:59.485Z,57.70
2022-09-09T21:11:26.109Z,57.79
2022-09-09T21:13:52.558Z,58.20
2022-09-09T21:16:19.500Z,58.64
2022-09-09T21:18:46.057Z,59.75
2022-09-09T21:21:13.207Z,59.20
2022-09-09T21:23:39.719Z,60.57
2022-09-09T21:26:07.569Z,60.04
2022-09-09T21:28:35.996Z,60.99
2022-09-09T21:31:04.111Z,60.17
2022-09-09T21:33:30.670Z,59.63
2022-09-09T21:36:03.546Z,59.92
2022-09-09T21:38:30.345Z,60.41
2022-09-09T21:40:56.857Z,59.60
2022-09-09T21:43:26.049Z,61.00
2022-09-09T21:45:53.649Z,60.33
2022-09-09T21:48:20.116Z,60.58
2022-09-09T21:50:48.059Z,60.63
2022-09-09T21:53:18.095Z,60.68
2022-09-09T21:55:47.676Z,61.34
2022-09-09T21:58:18.477Z,61.01
2022-09-09T22:00:46.891Z,62.96
2022-09-09T22:03:14.899Z,63.16
2022-09-09T22:05:43.150Z,61.90
2022-09-09T22:08:11.739Z,62.20
2022-09-09T22:10:40.093Z,61.93
2022-09-09T22:13:07.245Z,61.47
2022-09-09T22:15:34.703Z,62.44
2022-09-09T22:18:03.210Z,62.30
2022-09-09T22:20:34.722Z,62.21
2022-09-09T22:23:01.624Z,62.48
2022-09-09T22:25:32.256Z,62.83
2022-09-09T22:27:58.702Z,62.37
2022-09-09T22:30:25.144Z,63.10
2022-09-09T22:32:51.916Z,62.96
2022-09-09T22:35:18.331Z,62.91
2022-09-09T22:37:44.781Z,62.62
2022-09-09T22:40:14.063Z,62.61
2022-09-09T22:42:43.291Z,62.47
2022-09-09T22:45:11.623Z,62.35
2022-09-09T22:47:42.333Z,62.69
2022-09-09T22:50:09.812Z,62.43
2022-09-09T22:52:36.227Z,62.81
2022-09-09T22:55:02.612Z,62.22
2022-09-09T22:57:29.095Z,62.00
2022-09-09T22:59:56.085Z,63.38
2022-09-09T23:02:23.318Z,63.61
2022-09-09T23:04:49.753Z,62.63
2022-09-09T23:07:20.906Z,63.49
2022-09-09T23:09:47.775Z,63.50
2022-09-09T23:12:14.894Z,64.96
2022-09-09T23:14:41.533Z,64.56
2022-09-09T23:17:08.821Z,64.47
2022-09-09T23:19:37.045Z,64.69
2022-09-09T23:22:03.717Z,65.21
2022-09-09T23:24:30.220Z,65.19
2022-09-09T23:26:56.685Z,64.42
2022-09-09T23:29:23.162Z,64.71
2022-09-09T23:31:49.741Z,64.52
2022-09-09T23:34:16.211Z,64.56
2022-09-09T23:36:42.837Z,65.06
2022-09-09T23:39:11.273Z,65.50
2022-09-09T23:41:38.127Z,66.00
2022-09-09T23:44:05.213Z,65.13
2022-09-09T23:46:33.778Z,66.03
2022-09-09T23:49:02.382Z,65.82
2022-09-09T23:51:30.547Z,66.24
2022-09-09T23:54:00.347Z,66.35
2022-09-09T23:56:29.688Z,66.71
2022-09-09T23:58:56.323Z,67.00
